sensor_id;sensor_type;location;lat;lon;timestamp;P1;durP1;ratioP1;P2;durP2;ratioP2
2658;SDS011;1339;53.304;10.406;2023-11-21T00:02:24;5.55;;;3.95;;
2658;SDS011;1339;53.304;10.406;2023-11-21T00:04:52;5.30;;;3.28;;
2658;SDS011;1339;53.304;10.406;2023-11-21T00:07:19;5.18;;;4.78;;
2658;SDS011;1339;53.304;10.406;2023-11-21T00:09:46;6.93;;;4.35;;
2658;SDS011;1339;53.304;10.406;2023-11-21T00:12:13;5.90;;;5.10;;
2658;SDS011;1339;53.304;10.406;2023-11-21T00:14:42;6.00;;;5.28;;
2658;SDS011;1339;53.304;10.406;2023-11-21T00:17:09;7.50;;;5.53;;
2658;SDS011;1339;53.304;10.406;2023-11-21T00:19:36;8.82;;;6.28;;
2658;SDS011;1339;53.304;10.406;2023-11-21T00:22:03;7.13;;;6.18;;
2658;SDS011;1339;53.304;10.406;2023-11-21T00:24:31;7.55;;;6.20;;
2658;SDS011;1339;53.304;10.406;2023-11-21T00:26:58;13.27;;;7.70;;
2658;SDS011;1339;53.304;10.406;2023-11-21T00:29:25;10.25;;;7.93;;
2658;SDS011;1339;53.304;10.406;2023-11-21T00:31:54;11.95;;;7.95;;
2658;SDS011;1339;53.304;10.406;2023-11-21T00:34:21;11.75;;;9.77;;
2658;SDS011;1339;53.304;10.406;2023-11-21T00:36:48;10.75;;;8.30;;
2658;SDS011;1339;53.304;10.406;2023-11-21T00:39:15;11.13;;;8.68;;
2658;SDS011;1339;53.304;10.406;2023-11-21T00:41:42;10.32;;;7.60;;
2658;SDS011;1339;53.304;10.406;2023-11-21T00:44:10;12.55;;;9.27;;
2658;SDS011;1339;53.304;10.406;2023-11-21T00:46:37;10.07;;;8.75;;
2658;SDS011;1339;53.304;10.406;2023-11-21T00:49:05;10.77;;;9.13;;
2658;SDS011;1339;53.304;10.406;2023-11-21T00:51:32;12.00;;;7.78;;
2658;SDS011;1339;53.304;10.406;2023-11-21T00:53:59;12.70;;;9.30;;
2658;SDS011;1339;53.304;10.406;2023-11-21T00:56:27;13.70;;;9.32;;
2658;SDS011;1339;53.304;10.406;2023-11-21T00:58:54;12.30;;;9.57;;
2658;SDS011;1339;53.304;10.406;2023-11-21T01:01:21;10.95;;;9.70;;
2658;SDS011;1339;53.304;10.406;2023-11-21T01:03:49;14.85;;;10.05;;
2658;SDS011;1339;53.304;10.406;2023-11-21T01:06:18;13.07;;;9.52;;
2658;SDS011;1339;53.304;10.406;2023-11-21T01:08:45;14.85;;;11.80;;
2658;SDS011;1339;53.304;10.406;2023-11-21T01:11:12;15.07;;;12.10;;
2658;SDS011;1339;53.304;10.406;2023-11-21T01:13:39;17.45;;;11.35;;
2658;SDS011;1339;53.304;10.406;2023-11-21T01:16:06;20.55;;;14.32;;
2658;SDS011;1339;53.304;10.406;2023-11-21T01:18:34;19.42;;;14.68;;
2658;SDS011;1339;53.304;10.406;2023-11-21T01:21:01;24.95;;;16.52;;
2658;SDS011;1339;53.304;10.406;2023-11-21T01:23:30;27.55;;;15.75;;
2658;SDS011;1339;53.304;10.406;2023-11-21T01:25:57;23.80;;;15.60;;
2658;SDS011;1339;53.304;10.406;2023-11-21T01:28:24;22.58;;;16.48;;
2658;SDS011;1339;53.304;10.406;2023-11-21T01:30:51;25.08;;;18.35;;
2658;SDS011;1339;53.304;10.406;2023-11-21T01:33:21;20.65;;;16.00;;
2658;SDS011;1339;53.304;10.406;2023-11-21T01:35:49;22.70;;;15.63;;
2658;SDS011;1339;53.304;10.406;2023-11-21T01:38:19;23.13;;;17.30;;
2658;SDS011;1339;53.304;10.406;2023-11-21T01:40:48;23.08;;;16.52;;
2658;SDS011;1339;53.304;10.406;2023-11-21T01:43:15;23.45;;;16.40;;
2658;SDS011;1339;53.304;10.406;2023-11-21T01:45:42;25.52;;;16.35;;
2658;SDS011;1339;53.304;10.406;2023-11-21T01:48:10;23.35;;;17.45;;
2658;SDS011;1339;53.304;10.406;2023-11-21T01:50:38;26.95;;;16.95;;
2658;SDS011;1339;53.304;10.406;2023-11-21T01:53:05;25.65;;;18.10;;
2658;SDS011;1339;53.304;10.406;2023-11-21T01:55:32;24.33;;;18.20;;
2658;SDS011;1339;53.304;10.406;2023-11-21T01:58:01;23.90;;;18.17;;
2658;SDS011;1339;53.304;10.406;2023-11-21T02:00:28;26.45;;;16.58;;
2658;SDS011;1339;53.304;10.406;2023-11-21T02:02:56;23.25;;;18.17;;
2658;SDS011;1339;53.304;10.406;2023-11-21T02:05:24;21.35;;;16.00;;
2658;SDS011;1339;53.304;10.406;2023-11-21T02:07:51;23.80;;;17.17;;
2658;SDS011;1339;53.304;10.406;2023-11-21T02:10:18;23.00;;;16.98;;
2658;SDS011;1339;53.304;10.406;2023-11-21T02:12:48;21.23;;;15.07;;
2658;SDS011;1339;53.304;10.406;2023-11-21T02:15:16;21.05;;;15.68;;
2658;SDS011;1339;53.304;10.406;2023-11-21T02:17:45;20.20;;;17.02;;
2658;SDS011;1339;53.304;10.406;2023-11-21T02:20:16;22.75;;;17.13;;
2658;SDS011;1339;53.304;10.406;2023-11-21T02:22:49;23.20;;;16.33;;
2658;SDS011;1339;53.304;10.406;2023-11-21T02:25:18;18.83;;;15.63;;
2658;SDS011;1339;53.304;10.406;2023-11-21T02:27:45;23.90;;;18.08;;
2658;SDS011;1339;53.304;10.406;2023-11-21T02:30:13;22.50;;;16.70;;
2658;SDS011;1339;53.304;10.406;2023-11-21T02:32:41;17.10;;;13.68;;
2658;SDS011;1339;53.304;10.406;2023-11-21T02:35:08;18.30;;;14.57;;
2658;SDS011;1339;53.304;10.406;2023-11-21T02:37:37;18.52;;;13.77;;
2658;SDS011;1339;53.304;10.406;2023-11-21T02:40:08;18.02;;;13.52;;
2658;SDS011;1339;53.304;10.406;2023-11-21T02:42:37;16.10;;;13.90;;
2658;SDS011;1339;53.304;10.406;2023-11-21T02:45:04;15.90;;;13.98;;
2658;SDS011;1339;53.304;10.406;2023-11-21T02:47:31;14.38;;;12.45;;
2658;SDS011;1339;53.304;10.406;2023-11-21T02:49:59;16.88;;;13.35;;
2658;SDS011;1339;53.304;10.406;2023-11-21T02:52:26;15.90;;;11.52;;
2658;SDS011;1339;53.304;10.406;2023-11-21T02:54:53;17.38;;;14.13;;
2658;SDS011;1339;53.304;10.406;2023-11-21T02:57:21;20.75;;;12.98;;
2658;SDS011;1339;53.304;10.406;2023-11-21T02:59:48;14.20;;;12.45;;
2658;SDS011;1339;53.304;10.406;2023-11-21T03:02:15;16.92;;;14.20;;
2658;SDS011;1339;53.304;10.406;2023-11-21T03:04:42;18.77;;;12.93;;
2658;SDS011;1339;53.304;10.406;2023-11-21T03:07:09;17.17;;;14.48;;
2658;SDS011;1339;53.304;10.406;2023-11-21T03:09:36;18.13;;;13.82;;
2658;SDS011;1339;53.304;10.406;2023-11-21T03:12:04;17.45;;;14.55;;
2658;SDS011;1339;53.304;10.406;2023-11-21T03:14:32;16.85;;;13.13;;
2658;SDS011;1339;53.304;10.406;2023-11-21T03:16:59;14.43;;;12.77;;
2658;SDS011;1339;53.304;10.406;2023-11-21T03:19:27;19.73;;;14.70;;
2658;SDS011;1339;53.304;10.406;2023-11-21T03:21:54;16.38;;;12.25;;
2658;SDS011;1339;53.304;10.406;2023-11-21T03:24:21;13.57;;;11.80;;
2658;SDS011;1339;53.304;10.406;2023-11-21T03:26:48;15.07;;;12.45;;
2658;SDS011;1339;53.304;10.406;2023-11-21T03:29:16;13.10;;;11.52;;
2658;SDS011;1339;53.304;10.406;2023-11-21T03:31:44;14.63;;;11.13;;
2658;SDS011;1339;53.304;10.406;2023-11-21T03:34:14;12.82;;;11.40;;
2658;SDS011;1339;53.304;10.406;2023-11-21T03:36:42;13.25;;;11.68;;
2658;SDS011;1339;53.304;10.406;2023-11-21T03:39:09;13.95;;;12.40;;
2658;SDS011;1339;53.304;10.406;2023-11-21T03:41:36;11.68;;;10.48;;
2658;SDS011;1339;53.304;10.406;2023-11-21T03:44:03;11.48;;;10.25;;
2658;SDS011;1339;53.304;10.406;2023-11-21T03:46:30;12.70;;;11.30;;
2658;SDS011;1339;53.304;10.406;2023-11-21T03:48:58;13.30;;;11.00;;
2658;SDS011;1339;53.304;10.406;2023-11-21T03:51:25;14.00;;;11.30;;
2658;SDS011;1339;53.304;10.406;2023-11-21T03:53:53;13.45;;;12.05;;
2658;SDS011;1339;53.304;10.406;2023-11-21T03:56:23;13.32;;;11.95;;
2658;SDS011;1339;53.304;10.406;2023-11-21T03:58:50;14.77;;;12.27;;
2658;SDS011;1339;53.304;10.406;2023-11-21T04:01:20;15.80;;;12.68;;
2658;SDS011;1339;53.304;10.406;2023-11-21T04:03:48;13.73;;;10.10;;
2658;SDS011;1339;53.304;10.406;2023-11-21T04:06:16;15.32;;;11.38;;
2658;SDS011;1339;53.304;10.406;2023-11-21T04:08:43;16.75;;;12.60;;
2658;SDS011;1339;53.304;10.406;2023-11-21T04:11:10;14.60;;;12.77;;
2658;SDS011;1339;53.304;10.406;2023-11-21T04:13:37;15.25;;;11.98;;
2658;SDS011;1339;53.304;10.406;2023-11-21T04:16:05;13.10;;;11.60;;
2658;SDS011;1339;53.304;10.406;2023-11-21T04:18:32;15.07;;;13.63;;
2658;SDS011;1339;53.304;10.406;2023-11-21T04:20:59;16.08;;;14.32;;
2658;SDS011;1339;53.304;10.406;2023-11-21T04:23:29;14.82;;;12.48;;
2658;SDS011;1339;53.304;10.406;2023-11-21T04:25:57;14.73;;;13.15;;
2658;SDS011;1339;53.304;10.406;2023-11-21T04:28:23;15.15;;;11.88;;
2658;SDS011;1339;53.304;10.406;2023-11-21T04:30:51;13.18;;;11.77;;
2658;SDS011;1339;53.304;10.406;2023-11-21T04:33:18;13.25;;;11.63;;
2658;SDS011;1339;53.304;10.406;2023-11-21T04:35:46;13.38;;;11.73;;
2658;SDS011;1339;53.304;10.406;2023-11-21T04:38:13;11.93;;;10.73;;
2658;SDS011;1339;53.304;10.406;2023-11-21T04:40:42;13.05;;;11.73;;
2658;SDS011;1339;53.304;10.406;2023-11-21T04:43:09;15.35;;;12.50;;
2658;SDS011;1339;53.304;10.406;2023-11-21T04:45:36;14.07;;;12.55;;
2658;SDS011;1339;53.304;10.406;2023-11-21T04:48:03;12.70;;;11.48;;
2658;SDS011;1339;53.304;10.406;2023-11-21T04:50:31;14.20;;;12.05;;
2658;SDS011;1339;53.304;10.406;2023-11-21T04:52:58;13.60;;;12.20;;
2658;SDS011;1339;53.304;10.406;2023-11-21T04:55:25;14.30;;;11.77;;
2658;SDS011;1339;53.304;10.406;2023-11-21T04:57:54;12.65;;;11.23;;
2658;SDS011;1339;53.304;10.406;2023-11-21T05:00:22;13.18;;;11.68;;
2658;SDS011;1339;53.304;10.406;2023-11-21T05:02:49;15.73;;;12.48;;
2658;SDS011;1339;53.304;10.406;2023-11-21T05:05:17;13.50;;;11.10;;
2658;SDS011;1339;53.304;10.406;2023-11-21T05:07:44;13.65;;;11.32;;
2658;SDS011;1339;53.304;10.406;2023-11-21T05:10:11;19.40;;;12.75;;
2658;SDS011;1339;53.304;10.406;2023-11-21T05:12:40;15.07;;;13.55;;
2658;SDS011;1339;53.304;10.406;2023-11-21T05:15:09;13.80;;;10.15;;
2658;SDS011;1339;53.304;10.406;2023-11-21T05:17:36;19.20;;;13.20;;
2658;SDS011;1339;53.304;10.406;2023-11-21T05:20:04;16.00;;;12.10;;
2658;SDS011;1339;53.304;10.406;2023-11-21T05:22:33;12.90;;;11.68;;
2658;SDS011;1339;53.304;10.406;2023-11-21T05:25:01;14.88;;;12.27;;
2658;SDS011;1339;53.304;10.406;2023-11-21T05:27:28;13.02;;;11.63;;
2658;SDS011;1339;53.304;10.406;2023-11-21T05:29:56;12.80;;;10.85;;
2658;SDS011;1339;53.304;10.406;2023-11-21T05:32:24;11.75;;;10.43;;
2658;SDS011;1339;53.304;10.406;2023-11-21T05:34:52;12.35;;;11.05;;
2658;SDS011;1339;53.304;10.406;2023-11-21T05:37:19;15.80;;;12.25;;
2658;SDS011;1339;53.304;10.406;2023-11-21T05:39:46;11.85;;;10.65;;
2658;SDS011;1339;53.304;10.406;2023-11-21T05:42:13;12.50;;;11.15;;
2658;SDS011;1339;53.304;10.406;2023-11-21T05:44:41;12.52;;;10.65;;
2658;SDS011;1339;53.304;10.406;2023-11-21T05:47:09;11.82;;;10.57;;
2658;SDS011;1339;53.304;10.406;2023-11-21T05:49:37;12.75;;;10.77;;
2658;SDS011;1339;53.304;10.406;2023-11-21T05:52:04;11.48;;;10.05;;
2658;SDS011;1339;53.304;10.406;2023-11-21T05:54:31;11.30;;;10.20;;
2658;SDS011;1339;53.304;10.406;2023-11-21T05:56:57;11.88;;;10.55;;
2658;SDS011;1339;53.304;10.406;2023-11-21T05:59:25;13.05;;;9.95;;
2658;SDS011;1339;53.304;10.406;2023-11-21T06:01:55;11.85;;;10.73;;
2658;SDS011;1339;53.304;10.406;2023-11-21T06:04:22;12.63;;;10.35;;
2658;SDS011;1339;53.304;10.406;2023-11-21T06:06:51;11.68;;;10.48;;
2658;SDS011;1339;53.304;10.406;2023-11-21T06:09:18;12.43;;;11.13;;
2658;SDS011;1339;53.304;10.406;2023-11-21T06:11:46;12.15;;;10.32;;
2658;SDS011;1339;53.304;10.406;2023-11-21T06:14:13;11.45;;;10.32;;
2658;SDS011;1339;53.304;10.406;2023-11-21T06:16:42;14.40;;;10.60;;
2658;SDS011;1339;53.304;10.406;2023-11-21T06:19:10;11.63;;;10.43;;
2658;SDS011;1339;53.304;10.406;2023-11-21T06:21:37;12.68;;;10.82;;
2658;SDS011;1339;53.304;10.406;2023-11-21T06:24:06;16.92;;;11.80;;
2658;SDS011;1339;53.304;10.406;2023-11-21T06:26:33;13.00;;;10.80;;
2658;SDS011;1339;53.304;10.406;2023-11-21T06:29:00;14.68;;;11.05;;
2658;SDS011;1339;53.304;10.406;2023-11-21T06:31:28;11.85;;;9.50;;
2658;SDS011;1339;53.304;10.406;2023-11-21T06:33:57;14.55;;;12.68;;
2658;SDS011;1339;53.304;10.406;2023-11-21T06:36:24;11.13;;;10.00;;
2658;SDS011;1339;53.304;10.406;2023-11-21T06:38:52;10.80;;;9.70;;
2658;SDS011;1339;53.304;10.406;2023-11-21T06:41:21;16.63;;;11.35;;
2658;SDS011;1339;53.304;10.406;2023-11-21T06:43:48;13.80;;;9.73;;
2658;SDS011;1339;53.304;10.406;2023-11-21T06:46:15;11.25;;;10.05;;
2658;SDS011;1339;53.304;10.406;2023-11-21T06:48:44;15.70;;;11.45;;
2658;SDS011;1339;53.304;10.406;2023-11-21T06:51:11;12.95;;;10.73;;
2658;SDS011;1339;53.304;10.406;2023-11-21T06:53:38;14.40;;;10.20;;
2658;SDS011;1339;53.304;10.406;2023-11-21T06:56:14;11.73;;;9.93;;
2658;SDS011;1339;53.304;10.406;2023-11-21T06:58:43;10.15;;;9.05;;
2658;SDS011;1339;53.304;10.406;2023-11-21T07:01:11;12.90;;;10.95;;
2658;SDS011;1339;53.304;10.406;2023-11-21T07:03:38;12.55;;;10.27;;
2658;SDS011;1339;53.304;10.406;2023-11-21T07:06:06;11.40;;;9.55;;
2658;SDS011;1339;53.304;10.406;2023-11-21T07:08:33;10.95;;;9.38;;
2658;SDS011;1339;53.304;10.406;2023-11-21T07:11:00;10.77;;;9.77;;
2658;SDS011;1339;53.304;10.406;2023-11-21T07:13:28;12.20;;;9.23;;
2658;SDS011;1339;53.304;10.406;2023-11-21T07:15:57;9.98;;;8.23;;
2658;SDS011;1339;53.304;10.406;2023-11-21T07:18:24;11.80;;;9.90;;
2658;SDS011;1339;53.304;10.406;2023-11-21T07:20:51;15.77;;;10.90;;
2658;SDS011;1339;53.304;10.406;2023-11-21T07:23:18;11.07;;;9.45;;
2658;SDS011;1339;53.304;10.406;2023-11-21T07:25:47;11.35;;;10.02;;
2658;SDS011;1339;53.304;10.406;2023-11-21T07:28:14;12.18;;;10.70;;
2658;SDS011;1339;53.304;10.406;2023-11-21T07:30:41;10.85;;;9.73;;
2658;SDS011;1339;53.304;10.406;2023-11-21T07:33:10;10.95;;;9.35;;
2658;SDS011;1339;53.304;10.406;2023-11-21T07:35:37;10.77;;;9.77;;
2658;SDS011;1339;53.304;10.406;2023-11-21T07:38:04;16.73;;;11.15;;
2658;SDS011;1339;53.304;10.406;2023-11-21T07:40:31;11.82;;;10.13;;
2658;SDS011;1339;53.304;10.406;2023-11-21T07:42:58;13.18;;;10.65;;
2658;SDS011;1339;53.304;10.406;2023-11-21T07:45:25;11.07;;;9.93;;
2658;SDS011;1339;53.304;10.406;2023-11-21T07:47:53;10.23;;;9.23;;
2658;SDS011;1339;53.304;10.406;2023-11-21T07:50:22;12.40;;;10.23;;
2658;SDS011;1339;53.304;10.406;2023-11-21T07:52:49;12.48;;;11.07;;
2658;SDS011;1339;53.304;10.406;2023-11-21T07:55:16;10.98;;;9.88;;
2658;SDS011;1339;53.304;10.406;2023-11-21T07:57:43;11.45;;;10.32;;
2658;SDS011;1339;53.304;10.406;2023-11-21T08:00:10;12.02;;;9.95;;
2658;SDS011;1339;53.304;10.406;2023-11-21T08:02:40;16.60;;;9.32;;
2658;SDS011;1339;53.304;10.406;2023-11-21T08:05:08;12.52;;;9.95;;
2658;SDS011;1339;53.304;10.406;2023-11-21T08:07:37;11.85;;;10.30;;
2658;SDS011;1339;53.304;10.406;2023-11-21T08:10:04;11.55;;;10.35;;
2658;SDS011;1339;53.304;10.406;2023-11-21T08:12:35;12.68;;;10.95;;
2658;SDS011;1339;53.304;10.406;2023-11-21T08:15:03;11.32;;;10.20;;
2658;SDS011;1339;53.304;10.406;2023-11-21T08:17:31;12.02;;;10.82;;
2658;SDS011;1339;53.304;10.406;2023-11-21T08:19:58;12.93;;;11.00;;
2658;SDS011;1339;53.304;10.406;2023-11-21T08:22:25;12.77;;;11.45;;
2658;SDS011;1339;53.304;10.406;2023-11-21T08:24:53;11.88;;;10.65;;
2658;SDS011;1339;53.304;10.406;2023-11-21T08:27:20;10.35;;;9.20;;
2658;SDS011;1339;53.304;10.406;2023-11-21T08:29:47;12.10;;;10.90;;
2658;SDS011;1339;53.304;10.406;2023-11-21T08:32:15;10.65;;;9.65;;
2658;SDS011;1339;53.304;10.406;2023-11-21T08:34:42;11.38;;;10.20;;
2658;SDS011;1339;53.304;10.406;2023-11-21T08:37:10;12.68;;;11.00;;
2658;SDS011;1339;53.304;10.406;2023-11-21T08:39:37;12.30;;;11.10;;
2658;SDS011;1339;53.304;10.406;2023-11-21T08:42:08;11.02;;;10.02;;
2658;SDS011;1339;53.304;10.406;2023-11-21T08:44:35;12.95;;;11.57;;
2658;SDS011;1339;53.304;10.406;2023-11-21T08:47:03;10.77;;;9.68;;
2658;SDS011;1339;53.304;10.406;2023-11-21T08:49:31;10.98;;;9.77;;
2658;SDS011;1339;53.304;10.406;2023-11-21T08:51:58;12.30;;;11.10;;
2658;SDS011;1339;53.304;10.406;2023-11-21T08:54:25;13.40;;;10.95;;
2658;SDS011;1339;53.304;10.406;2023-11-21T08:56:52;11.85;;;10.68;;
2658;SDS011;1339;53.304;10.406;2023-11-21T08:59:21;11.27;;;10.27;;
2658;SDS011;1339;53.304;10.406;2023-11-21T09:01:49;15.02;;;10.38;;
2658;SDS011;1339;53.304;10.406;2023-11-21T09:04:16;10.50;;;9.40;;
2658;SDS011;1339;53.304;10.406;2023-11-21T09:06:43;12.38;;;11.18;;
2658;SDS011;1339;53.304;10.406;2023-11-21T09:09:10;12.40;;;11.00;;
2658;SDS011;1339;53.304;10.406;2023-11-21T09:11:37;13.00;;;9.88;;
2658;SDS011;1339;53.304;10.406;2023-11-21T09:14:04;10.40;;;9.40;;
2658;SDS011;1339;53.304;10.406;2023-11-21T09:16:32;13.10;;;10.35;;
2658;SDS011;1339;53.304;10.406;2023-11-21T09:19:00;11.00;;;9.95;;
2658;SDS011;1339;53.304;10.406;2023-11-21T09:21:30;14.80;;;11.02;;
2658;SDS011;1339;53.304;10.406;2023-11-21T09:23:59;10.93;;;9.90;;
2658;SDS011;1339;53.304;10.406;2023-11-21T09:26:26;11.70;;;10.48;;
2658;SDS011;1339;53.304;10.406;2023-11-21T09:28:55;13.13;;;10.75;;
2658;SDS011;1339;53.304;10.406;2023-11-21T09:31:22;12.07;;;10.30;;
2658;SDS011;1339;53.304;10.406;2023-11-21T09:33:50;10.90;;;9.85;;
2658;SDS011;1339;53.304;10.406;2023-11-21T09:36:18;9.80;;;8.82;;
2658;SDS011;1339;53.304;10.406;2023-11-21T09:38:47;10.77;;;9.40;;
2658;SDS011;1339;53.304;10.406;2023-11-21T09:41:15;10.43;;;8.73;;
2658;SDS011;1339;53.304;10.406;2023-11-21T09:43:46;9.32;;;8.43;;
2658;SDS011;1339;53.304;10.406;2023-11-21T09:46:14;11.40;;;9.95;;
2658;SDS011;1339;53.304;10.406;2023-11-21T09:48:45;9.32;;;8.43;;
2658;SDS011;1339;53.304;10.406;2023-11-21T09:51:15;10.20;;;9.30;;
2658;SDS011;1339;53.304;10.406;2023-11-21T09:53:44;9.73;;;8.73;;
2658;SDS011;1339;53.304;10.406;2023-11-21T09:56:14;9.00;;;8.20;;
2658;SDS011;1339;53.304;10.406;2023-11-21T09:58:44;10.07;;;8.55;;
2658;SDS011;1339;53.304;10.406;2023-11-21T10:01:11;8.63;;;7.72;;
2658;SDS011;1339;53.304;10.406;2023-11-21T10:03:40;8.40;;;7.57;;
2658;SDS011;1339;53.304;10.406;2023-11-21T10:06:07;7.97;;;6.80;;
2658;SDS011;1339;53.304;10.406;2023-11-21T10:09:45;6.85;;;6.18;;
2658;SDS011;1339;53.304;10.406;2023-11-21T10:12:13;7.50;;;6.80;;
2658;SDS011;1339;53.304;10.406;2023-11-21T10:14:41;7.88;;;7.07;;
2658;SDS011;1339;53.304;10.406;2023-11-21T10:17:10;7.30;;;6.65;;
2658;SDS011;1339;53.304;10.406;2023-11-21T10:19:38;6.80;;;6.05;;
2658;SDS011;1339;53.304;10.406;2023-11-21T10:22:05;7.30;;;6.68;;
2658;SDS011;1339;53.304;10.406;2023-11-21T10:24:33;7.82;;;5.85;;
2658;SDS011;1339;53.304;10.406;2023-11-21T10:27:03;7.80;;;6.60;;
2658;SDS011;1339;53.304;10.406;2023-11-21T10:29:30;8.13;;;7.32;;
2658;SDS011;1339;53.304;10.406;2023-11-21T10:32:01;6.20;;;5.55;;
2658;SDS011;1339;53.304;10.406;2023-11-21T10:34:28;7.95;;;7.25;;
2658;SDS011;1339;53.304;10.406;2023-11-21T10:36:56;7.88;;;7.07;;
2658;SDS011;1339;53.304;10.406;2023-11-21T10:39:23;8.77;;;7.97;;
2658;SDS011;1339;53.304;10.406;2023-11-21T10:41:55;8.88;;;7.45;;
2658;SDS011;1339;53.304;10.406;2023-11-21T10:44:24;7.38;;;6.78;;
2658;SDS011;1339;53.304;10.406;2023-11-21T10:46:52;7.70;;;7.00;;
2658;SDS011;1339;53.304;10.406;2023-11-21T10:49:21;10.90;;;7.93;;
2658;SDS011;1339;53.304;10.406;2023-11-21T10:51:50;10.27;;;7.78;;
2658;SDS011;1339;53.304;10.406;2023-11-21T10:54:18;8.10;;;7.38;;
2658;SDS011;1339;53.304;10.406;2023-11-21T10:56:46;8.63;;;7.57;;
2658;SDS011;1339;53.304;10.406;2023-11-21T10:59:16;5.97;;;5.53;;
2658;SDS011;1339;53.304;10.406;2023-11-21T11:01:47;6.20;;;5.70;;
2658;SDS011;1339;53.304;10.406;2023-11-21T11:04:16;7.18;;;6.32;;
2658;SDS011;1339;53.304;10.406;2023-11-21T11:06:44;8.38;;;7.18;;
2658;SDS011;1339;53.304;10.406;2023-11-21T11:09:13;7.05;;;6.35;;
2658;SDS011;1339;53.304;10.406;2023-11-21T11:11:41;7.00;;;6.40;;
2658;SDS011;1339;53.304;10.406;2023-11-21T11:14:10;6.93;;;6.22;;
2658;SDS011;1339;53.304;10.406;2023-11-21T11:16:38;7.78;;;5.90;;
2658;SDS011;1339;53.304;10.406;2023-11-21T11:19:07;8.07;;;6.03;;
2658;SDS011;1339;53.304;10.406;2023-11-21T11:21:38;6.07;;;5.53;;
2658;SDS011;1339;53.304;10.406;2023-11-21T11:24:13;6.97;;;6.38;;
2658;SDS011;1339;53.304;10.406;2023-11-21T11:26:46;6.60;;;5.90;;
2658;SDS011;1339;53.304;10.406;2023-11-21T11:29:28;6.03;;;5.43;;
2658;SDS011;1339;53.304;10.406;2023-11-21T11:32:02;6.35;;;5.75;;
2658;SDS011;1339;53.304;10.406;2023-11-21T11:34:32;5.20;;;4.70;;
2658;SDS011;1339;53.304;10.406;2023-11-21T11:37:05;5.22;;;4.72;;
2658;SDS011;1339;53.304;10.406;2023-11-21T11:39:35;4.28;;;3.88;;
2658;SDS011;1339;53.304;10.406;2023-11-21T11:42:03;5.95;;;5.35;;
2658;SDS011;1339;53.304;10.406;2023-11-21T11:47:16;4.72;;;4.32;;
2658;SDS011;1339;53.304;10.406;2023-11-21T11:49:56;5.47;;;5.05;;
2658;SDS011;1339;53.304;10.406;2023-11-21T11:52:36;5.82;;;5.35;;
2658;SDS011;1339;53.304;10.406;2023-11-21T11:55:05;5.15;;;4.65;;
2658;SDS011;1339;53.304;10.406;2023-11-21T11:57:35;6.43;;;5.25;;
2658;SDS011;1339;53.304;10.406;2023-11-21T12:00:07;5.28;;;4.88;;
2658;SDS011;1339;53.304;10.406;2023-11-21T12:02:35;4.88;;;4.40;;
2658;SDS011;1339;53.304;10.406;2023-11-21T12:05:08;6.45;;;5.43;;
2658;SDS011;1339;53.304;10.406;2023-11-21T12:07:42;5.85;;;4.78;;
2658;SDS011;1339;53.304;10.406;2023-11-21T12:10:11;5.15;;;4.75;;
2658;SDS011;1339;53.304;10.406;2023-11-21T12:12:41;4.90;;;4.40;;
2658;SDS011;1339;53.304;10.406;2023-11-21T12:15:08;7.32;;;5.30;;
2658;SDS011;1339;53.304;10.406;2023-11-21T12:17:35;8.57;;;4.70;;
2658;SDS011;1339;53.304;10.406;2023-11-21T12:20:03;5.60;;;5.00;;
2658;SDS011;1339;53.304;10.406;2023-11-21T12:22:41;5.90;;;5.28;;
2658;SDS011;1339;53.304;10.406;2023-11-21T12:25:08;5.95;;;5.03;;
2658;SDS011;1339;53.304;10.406;2023-11-21T12:27:40;5.60;;;5.10;;
2658;SDS011;1339;53.304;10.406;2023-11-21T12:30:07;6.00;;;5.47;;
2658;SDS011;1339;53.304;10.406;2023-11-21T12:32:38;6.35;;;5.85;;
2658;SDS011;1339;53.304;10.406;2023-11-21T12:35:06;5.90;;;5.40;;
2658;SDS011;1339;53.304;10.406;2023-11-21T12:37:33;5.68;;;5.18;;
2658;SDS011;1339;53.304;10.406;2023-11-21T12:40:02;5.32;;;4.93;;
2658;SDS011;1339;53.304;10.406;2023-11-21T12:42:29;5.07;;;4.57;;
2658;SDS011;1339;53.304;10.406;2023-11-21T12:45:08;6.25;;;5.20;;
2658;SDS011;1339;53.304;10.406;2023-11-21T12:47:39;6.05;;;5.30;;
2658;SDS011;1339;53.304;10.406;2023-11-21T12:50:07;6.55;;;6.05;;
2658;SDS011;1339;53.304;10.406;2023-11-21T12:52:39;5.35;;;4.95;;
2658;SDS011;1339;53.304;10.406;2023-11-21T12:55:08;5.65;;;5.15;;
2658;SDS011;1339;53.304;10.406;2023-11-21T12:57:40;6.57;;;5.75;;
2658;SDS011;1339;53.304;10.406;2023-11-21T13:00:08;5.50;;;5.00;;
2658;SDS011;1339;53.304;10.406;2023-11-21T13:02:40;5.40;;;5.00;;
2658;SDS011;1339;53.304;10.406;2023-11-21T13:05:08;6.68;;;6.05;;
2658;SDS011;1339;53.304;10.406;2023-11-21T13:07:46;6.05;;;5.13;;
2658;SDS011;1339;53.304;10.406;2023-11-21T13:10:15;6.55;;;5.57;;
2658;SDS011;1339;53.304;10.406;2023-11-21T13:12:43;6.57;;;5.95;;
2658;SDS011;1339;53.304;10.406;2023-11-21T13:15:13;8.73;;;5.45;;
2658;SDS011;1339;53.304;10.406;2023-11-21T13:17:42;7.07;;;5.13;;
2658;SDS011;1339;53.304;10.406;2023-11-21T13:20:10;6.18;;;5.57;;
2658;SDS011;1339;53.304;10.406;2023-11-21T13:22:44;6.57;;;5.68;;
2658;SDS011;1339;53.304;10.406;2023-11-21T13:25:11;6.00;;;5.50;;
2658;SDS011;1339;53.304;10.406;2023-11-21T13:27:41;5.20;;;4.75;;
2658;SDS011;1339;53.304;10.406;2023-11-21T13:30:09;7.75;;;5.88;;
2658;SDS011;1339;53.304;10.406;2023-11-21T13:32:40;5.72;;;5.28;;
2658;SDS011;1339;53.304;10.406;2023-11-21T13:35:07;8.15;;;7.47;;
2658;SDS011;1339;53.304;10.406;2023-11-21T13:37:40;5.40;;;4.93;;
2658;SDS011;1339;53.304;10.406;2023-11-21T13:40:10;6.75;;;6.05;;
2658;SDS011;1339;53.304;10.406;2023-11-21T13:42:41;5.68;;;5.18;;
2658;SDS011;1339;53.304;10.406;2023-11-21T13:45:09;6.25;;;5.75;;
2658;SDS011;1339;53.304;10.406;2023-11-21T13:47:37;6.90;;;6.30;;
2658;SDS011;1339;53.304;10.406;2023-11-21T13:50:05;6.28;;;5.15;;
2658;SDS011;1339;53.304;10.406;2023-11-21T13:52:41;6.30;;;5.70;;
2658;SDS011;1339;53.304;10.406;2023-11-21T13:55:10;6.00;;;5.35;;
2658;SDS011;1339;53.304;10.406;2023-11-21T13:57:42;6.47;;;5.93;;
2658;SDS011;1339;53.304;10.406;2023-11-21T14:00:12;5.60;;;5.10;;
2658;SDS011;1339;53.304;10.406;2023-11-21T14:03:00;6.20;;;5.57;;
2658;SDS011;1339;53.304;10.406;2023-11-21T14:05:33;6.05;;;5.57;;
2658;SDS011;1339;53.304;10.406;2023-11-21T14:08:00;6.20;;;5.55;;
2658;SDS011;1339;53.304;10.406;2023-11-21T14:10:29;6.70;;;5.90;;
2658;SDS011;1339;53.304;10.406;2023-11-21T14:13:06;6.05;;;5.28;;
2658;SDS011;1339;53.304;10.406;2023-11-21T14:15:35;8.13;;;5.75;;
2658;SDS011;1339;53.304;10.406;2023-11-21T14:18:06;6.45;;;5.72;;
2658;SDS011;1339;53.304;10.406;2023-11-21T14:20:35;5.32;;;4.65;;
2658;SDS011;1339;53.304;10.406;2023-11-21T14:23:02;5.60;;;4.93;;
2658;SDS011;1339;53.304;10.406;2023-11-21T14:25:31;6.63;;;5.28;;
2658;SDS011;1339;53.304;10.406;2023-11-21T14:27:58;5.68;;;5.15;;
2658;SDS011;1339;53.304;10.406;2023-11-21T14:30:26;6.57;;;5.47;;
2658;SDS011;1339;53.304;10.406;2023-11-21T14:32:57;6.72;;;6.05;;
2658;SDS011;1339;53.304;10.406;2023-11-21T14:35:24;5.85;;;4.72;;
2658;SDS011;1339;53.304;10.406;2023-11-21T14:37:51;5.63;;;5.13;;
2658;SDS011;1339;53.304;10.406;2023-11-21T14:40:18;5.07;;;4.57;;
2658;SDS011;1339;53.304;10.406;2023-11-21T14:42:49;5.85;;;5.32;;
2658;SDS011;1339;53.304;10.406;2023-11-21T14:45:18;5.63;;;5.05;;
2658;SDS011;1339;53.304;10.406;2023-11-21T14:47:47;5.28;;;4.78;;
2658;SDS011;1339;53.304;10.406;2023-11-21T14:50:23;6.47;;;5.43;;
2658;SDS011;1339;53.304;10.406;2023-11-21T14:53:16;5.00;;;4.60;;
2658;SDS011;1339;53.304;10.406;2023-11-21T14:56:04;6.32;;;5.72;;
2658;SDS011;1339;53.304;10.406;2023-11-21T14:58:32;5.38;;;4.95;;